Fairview Valley, Nevada Weather observations

Data are for observation ending at time listed.
 Day   Time    Ave.   Ave.  Ave.  Vector   Max.   Stn.    Total    Solar   Ave.   Ave.    #1       #2
  of    of     Air    Rel.  Wind   Wind    Wind   Baro.  Precip.   Rad.    Soil   Vis.   Cloud   Cloud
Year   Day     Temp.  Hum.  Speed  Dir.    Gust   Pres.                    Temp.          Ceil    Ceil
2016   (PST)    F      %     mph   deg.    mph     mb.     in.     W/m2     F     (km)   k ft.   k ft.
------------------------------------------------------------------------------------------------------
 342    0:00  999.0   999  999.0   999    999.0    999    999.00     999   999.0   999.0  999.0  999.0
 342    0:10  999.0   999  999.0   999    999.0    999    999.00     999   999.0   999.0  999.0  999.0
 342    0:20  999.0   999  999.0   999    999.0    999    999.00     999   999.0   999.0  999.0  999.0
 342    0:30  999.0   999  999.0   999    999.0    999    999.00     999   999.0   999.0  999.0  999.0
 342    0:40  999.0   999  999.0   999    999.0    999    999.00     999   999.0   999.0  999.0  999.0
 342    0:50  999.0   999  999.0   999    999.0    999    999.00     999   999.0   999.0  999.0  999.0
 342    1:00  999.0   999  999.0   999    999.0    999    999.00     999   999.0   999.0  999.0  999.0
 342    1:10  999.0   999  999.0   999    999.0    999    999.00     999   999.0   999.0  999.0  999.0
 342    1:20  999.0   999  999.0   999    999.0    999    999.00     999   999.0   999.0  999.0  999.0
 342    1:30  999.0   999  999.0   999    999.0    999    999.00     999   999.0   999.0  999.0  999.0
 342    1:40  999.0   999  999.0   999    999.0    999    999.00     999   999.0   999.0  999.0  999.0
 342    1:50  999.0   999  999.0   999    999.0    999    999.00     999   999.0   999.0  999.0  999.0
 342    2:00  999.0   999  999.0   999    999.0    999    999.00     999   999.0   999.0  999.0  999.0
 342    2:10  999.0   999  999.0   999    999.0    999    999.00     999   999.0   999.0  999.0  999.0
 342    2:20  999.0   999  999.0   999    999.0    999    999.00     999   999.0   999.0  999.0  999.0
 342    2:30  999.0   999  999.0   999    999.0    999    999.00     999   999.0   999.0  999.0  999.0
 342    2:40  999.0   999  999.0   999    999.0    999    999.00     999   999.0   999.0  999.0  999.0
 342    2:50  999.0   999  999.0   999    999.0    999    999.00     999   999.0   999.0  999.0  999.0
 342    3:00  999.0   999  999.0   999    999.0    999    999.00     999   999.0   999.0  999.0  999.0
 342    3:10  999.0   999  999.0   999    999.0    999    999.00     999   999.0   999.0  999.0  999.0
 342    3:20  999.0   999  999.0   999    999.0    999    999.00     999   999.0   999.0  999.0  999.0
 342    3:30  999.0   999  999.0   999    999.0    999    999.00     999   999.0   999.0  999.0  999.0
 342    3:40  999.0   999  999.0   999    999.0    999    999.00     999   999.0   999.0  999.0  999.0
 342    3:50  999.0   999  999.0   999    999.0    999    999.00     999   999.0   999.0  999.0  999.0
 342    4:00  999.0   999  999.0   999    999.0    999    999.00     999   999.0   999.0  999.0  999.0
 342    4:10  999.0   999  999.0   999    999.0    999    999.00     999   999.0   999.0  999.0  999.0
 342    4:20  999.0   999  999.0   999    999.0    999    999.00     999   999.0   999.0  999.0  999.0
 342    4:30  999.0   999  999.0   999    999.0    999    999.00     999   999.0   999.0  999.0  999.0
 342    4:40  999.0   999  999.0   999    999.0    999    999.00     999   999.0   999.0  999.0  999.0
 342    4:50  999.0   999  999.0   999    999.0    999    999.00     999   999.0   999.0  999.0  999.0
 342    5:00  999.0   999  999.0   999    999.0    999    999.00     999   999.0   999.0  999.0  999.0
 342    5:10  999.0   999  999.0   999    999.0    999    999.00     999   999.0   999.0  999.0  999.0
 342    5:20  999.0   999  999.0   999    999.0    999    999.00     999   999.0   999.0  999.0  999.0
 342    5:30  999.0   999  999.0   999    999.0    999    999.00     999   999.0   999.0  999.0  999.0
 342    5:40  999.0   999  999.0   999    999.0    999    999.00     999   999.0   999.0  999.0  999.0
 342    5:50  999.0   999  999.0   999    999.0    999    999.00     999   999.0   999.0  999.0  999.0
 342    6:00  999.0   999  999.0   999    999.0    999    999.00     999   999.0   999.0  999.0  999.0
 342    6:10  999.0   999  999.0   999    999.0    999    999.00     999   999.0   999.0  999.0  999.0
 342    6:20  999.0   999  999.0   999    999.0    999    999.00     999   999.0   999.0  999.0  999.0
 342    6:30  999.0   999  999.0   999    999.0    999    999.00     999   999.0   999.0  999.0  999.0
 342    6:40  999.0   999  999.0   999    999.0    999    999.00     999   999.0   999.0  999.0  999.0
 342    6:50   12.6    87    2.5   293      3.6    876     0.00       1    32.0   -8190.0    0.0  999.0
 342    7:00   13.0    86    2.4   302      3.0    876     0.00       4    32.0   -8190.0    0.0  999.0
 342    7:10   14.0    87    2.2   303      2.7    876     0.00       9    31.9   -8190.0    0.0  999.0
 342    7:20   14.9    87    2.7   269      3.1    876     0.00      27    31.8   -8190.0    0.0  999.0
 342    7:30   14.8    84    2.7   266      3.6    876     0.00      60    31.7   -8190.0    0.0  999.0
 342    7:40   15.7    83    2.1   231      3.0    876     0.00      93    31.7   -8190.0    0.0  999.0
 342    7:50   15.7    78    1.2   175      3.2    876     0.00      93    31.6   -8190.0    0.0  999.0
 342    8:00   15.1    82    0.1   147      0.9    876     0.00     101    31.5   -8190.0    0.0  999.0
 342    8:10   16.3    82    0.3    51      1.5    876     0.00     114    31.5   -8190.0    0.0  999.0
 342    8:20   16.7    81    0.0     0      0.0    876     0.00      97    31.4   -8190.0    0.0  999.0
 342    8:30   16.1    81    1.0   337      2.0    877     0.00     112    31.3   -8190.0    0.0  999.0
 342    8:40   17.3    82    0.9   338      2.9    877     0.00     200    31.3   -8190.0    0.0  999.0
 342    8:50   20.2    78    1.1    86      3.2    877     0.00     245    31.2   -8190.0    0.0  999.0
 342    9:00   22.7    73    2.5   104      5.0    877     0.00     256    31.1   -8190.0    0.0  999.0
 342    9:10   24.0    72    5.2    75      8.0    877     0.00     288    31.1   -8190.0    0.0  999.0
 342    9:20   24.9    69    5.2    63      9.7    877     0.00     290    31.1   -8190.0    0.0  999.0
 342    9:30   25.1    69    4.8    57      7.2    877     0.00     246    31.0   -8190.0    0.0  999.0
 342    9:40   25.5    69    5.9    59      8.8    877     0.00     359    31.0   -8190.0    0.0  999.0
 342    9:50   26.4    67    7.3    56     10.2    877     0.00     379    31.0   -8190.0    0.0  999.0
 342   10:00   27.2    66    8.1    50     14.3    877     0.00     367    31.0   -8190.0    0.0  999.0
 342   10:10   27.8    62   11.2    37     14.9    877     0.00     405    31.0   -8190.0    0.0  999.0
 342   10:20   28.4    61   10.6    30     14.9    877     0.00     421    31.1   -8190.0    0.0  999.0
 342   10:30   28.7    60   13.1    24     18.6    877     0.00     434    31.0   -8190.0    0.0  999.0
 342   10:40   28.5    60   14.0    23     18.7    877     0.00     444    31.2   -8190.0    0.0  999.0
 342   10:50   29.3    57   14.3    25     17.8    877     0.00     456    31.2   -8190.0    0.0  999.0
 342   11:00   29.6    56   13.1    27     17.7    877     0.00     482    31.2   -8190.0    0.0  999.0
 342   11:10   29.8    56   14.0    30     18.3    876     0.00     475    31.2   -8190.0    0.0  999.0
 342   11:20   30.2    55   12.8    22     17.4    876     0.00     468    31.2   -8190.0    0.0  999.0
 342   11:30   30.4    54   12.2    23     16.5    876     0.00     470    31.3   -8190.0    0.0  999.0
 342   11:40   30.7    54   12.2    25     18.2    876     0.00     464    31.3   -8190.0    0.0  999.0
 342   11:50   31.3    52   12.1    26     16.7    876     0.00     474    31.3   -8190.0    0.0  999.0
 342   12:00   31.0    52   14.0    24     18.3    876     0.00     482    31.3   -8190.0    0.0  999.0
 342   12:10   31.4    50   14.4    15     19.6    876     0.00     486    31.4   -8190.0    0.0  999.0
 342   12:20   31.8    49   13.3    20     19.8    876     0.00     483    31.4   -8190.0    0.0  999.0
 342   12:30   32.1    48   13.3    13     17.8    876     0.00     480    31.5   -8190.0    0.0  999.0
 342   12:40   32.1    48   12.9    19     16.7    875     0.00     470    31.5   -8190.0    0.0  999.0
 342   12:50   32.2    48   12.9    23     17.7    875     0.00     434    31.6   -8190.0    0.0  999.0
 342   13:00   32.5    47   12.6    17     18.3    875     0.00     460    31.6   -8190.0    0.0  999.0
 342   13:10   32.0    47   14.1    20     18.6    875     0.00     309    31.8   -8190.0    0.0  999.0
 342   13:20   31.4    49   13.3    19     17.6    875     0.00     258    31.9   -8190.0    0.0  999.0
 342   13:30   31.0    50   14.0    20     19.1    875     0.00     252    31.9   -8190.0    0.0  999.0
 342   13:40   31.7    49   15.3    16     19.5    875     0.00     456    32.0   -8190.0    0.0  999.0
 342   13:50   32.0    48   15.5    18     19.7    875     0.00     394    32.1   -8190.0    0.0  999.0
 342   14:00   32.0    48   14.3    19     18.1    875     0.00     368    32.2   -8190.0    0.0  999.0
 342   14:10   32.7    46   13.6    15     17.5    875     0.00     353    32.3   -8190.0    0.0  999.0
 342   14:20   32.2    47   14.6    18     18.6    875     0.00     198    32.4   -8190.0    0.0  999.0
 342   14:30   31.9    48   15.4    17     19.5    875     0.00     245    32.5   -8190.0    0.0  999.0
 342   14:40   32.5    46   16.6    23     20.6    875     0.00     338    32.6   -8190.0    0.0  999.0
 342   14:50   32.5    46   15.8    23     20.6    874     0.00     206    32.7   -8190.0    0.0  999.0
 342   15:00   32.5    46   15.7    19     20.5    874     0.00     245    32.8   -8190.0    0.7  999.0
 342   15:10   31.5    48   16.0    14     20.8    875     0.00     103    33.0   -8190.0    0.0  999.0
 342   15:20   30.7    50   16.0    18     20.1    875     0.00      83    33.0   -8190.0    0.0  999.0
 342   15:30   30.3    51   15.4    15     21.0    874     0.00      61    33.1   -8190.0    0.0  999.0
 342   15:40   29.9    52   16.6    15     21.4    875     0.00      47    33.2   -8190.0    0.0  999.0
 342   15:50  999.0   999   15.9    16     19.5    999    999.00      27   999.0   999.0  999.0  999.0
 342   16:00  999.0   999  999.0   999    999.0    999    999.00     999   999.0   999.0  999.0  999.0
 342   16:10  999.0   999  999.0   999    999.0    999    999.00     999   999.0   999.0  999.0  999.0
 342   16:20  999.0   999  999.0   999    999.0    999    999.00     999   999.0   999.0  999.0  999.0
 342   16:30  999.0   999  999.0   999    999.0    999    999.00     999   999.0   999.0  999.0  999.0
 342   16:40  999.0   999  999.0   999    999.0    999    999.00     999   999.0   999.0  999.0  999.0
 342   16:50  999.0   999  999.0   999    999.0    999    999.00       0   999.0   999.0  999.0  999.0

Return to Fairview Valley graphs page.


Western Regional Climate Center,wrcc@dri.edu